sensor_id;sensor_type;location;lat;lon;timestamp;P1;durP1;ratioP1;P2;durP2;ratioP2
70967;SDS011;58629;48.808;8.820;2023-07-13T00:01:27;2.58;;;0.95;;
70967;SDS011;58629;48.808;8.820;2023-07-13T00:03:53;2.10;;;1.05;;
70967;SDS011;58629;48.808;8.820;2023-07-13T00:06:18;4.25;;;1.13;;
70967;SDS011;58629;48.808;8.820;2023-07-13T00:08:45;3.17;;;1.10;;
70967;SDS011;58629;48.808;8.820;2023-07-13T00:11:11;3.67;;;1.33;;
70967;SDS011;58629;48.808;8.820;2023-07-13T00:13:36;2.13;;;0.97;;
70967;SDS011;58629;48.808;8.820;2023-07-13T00:16:04;5.18;;;1.10;;
70967;SDS011;58629;48.808;8.820;2023-07-13T00:18:29;1.97;;;1.07;;
70967;SDS011;58629;48.808;8.820;2023-07-13T00:20:55;1.80;;;1.00;;
70967;SDS011;58629;48.808;8.820;2023-07-13T00:23:22;2.03;;;1.00;;
70967;SDS011;58629;48.808;8.820;2023-07-13T00:25:48;2.78;;;1.02;;
70967;SDS011;58629;48.808;8.820;2023-07-13T00:28:15;3.75;;;1.13;;
70967;SDS011;58629;48.808;8.820;2023-07-13T00:30:41;3.27;;;1.10;;
70967;SDS011;58629;48.808;8.820;2023-07-13T00:33:06;4.33;;;1.17;;
70967;SDS011;58629;48.808;8.820;2023-07-13T00:35:32;3.03;;;1.13;;
70967;SDS011;58629;48.808;8.820;2023-07-13T00:37:59;2.22;;;1.10;;
70967;SDS011;58629;48.808;8.820;2023-07-13T00:40:25;1.83;;;1.10;;
70967;SDS011;58629;48.808;8.820;2023-07-13T00:42:51;1.20;;;0.90;;
70967;SDS011;58629;48.808;8.820;2023-07-13T00:47:43;2.43;;;1.00;;
70967;SDS011;58629;48.808;8.820;2023-07-13T00:50:10;3.27;;;1.30;;
70967;SDS011;58629;48.808;8.820;2023-07-13T00:52:39;3.30;;;1.20;;
70967;SDS011;58629;48.808;8.820;2023-07-13T00:55:08;4.43;;;1.10;;
70967;SDS011;58629;48.808;8.820;2023-07-13T00:57:35;2.05;;;1.20;;
70967;SDS011;58629;48.808;8.820;2023-07-13T01:00:03;4.60;;;1.10;;
70967;SDS011;58629;48.808;8.820;2023-07-13T01:02:32;1.85;;;1.02;;
70967;SDS011;58629;48.808;8.820;2023-07-13T01:04:58;1.70;;;1.10;;
70967;SDS011;58629;48.808;8.820;2023-07-13T01:07:24;3.80;;;1.30;;
70967;SDS011;58629;48.808;8.820;2023-07-13T01:09:50;1.65;;;1.00;;
70967;SDS011;58629;48.808;8.820;2023-07-13T01:12:15;2.23;;;1.23;;
70967;SDS011;58629;48.808;8.820;2023-07-13T01:14:40;2.37;;;1.23;;
70967;SDS011;58629;48.808;8.820;2023-07-13T01:17:08;3.20;;;1.20;;
70967;SDS011;58629;48.808;8.820;2023-07-13T01:19:36;2.28;;;1.00;;
70967;SDS011;58629;48.808;8.820;2023-07-13T01:22:08;3.67;;;1.13;;
70967;SDS011;58629;48.808;8.820;2023-07-13T01:24:41;4.75;;;1.38;;
70967;SDS011;58629;48.808;8.820;2023-07-13T01:27:08;2.50;;;1.00;;
70967;SDS011;58629;48.808;8.820;2023-07-13T01:29:35;3.03;;;1.20;;
70967;SDS011;58629;48.808;8.820;2023-07-13T01:32:11;1.92;;;1.00;;
70967;SDS011;58629;48.808;8.820;2023-07-13T01:34:38;3.88;;;1.10;;
70967;SDS011;58629;48.808;8.820;2023-07-13T01:37:07;1.88;;;1.10;;
70967;SDS011;58629;48.808;8.820;2023-07-13T01:39:36;2.78;;;1.20;;
70967;SDS011;58629;48.808;8.820;2023-07-13T01:42:02;1.42;;;1.00;;
70967;SDS011;58629;48.808;8.820;2023-07-13T01:44:28;2.42;;;1.00;;
70967;SDS011;58629;48.808;8.820;2023-07-13T01:46:53;1.98;;;1.00;;
70967;SDS011;58629;48.808;8.820;2023-07-13T01:49:18;2.70;;;1.00;;
70967;SDS011;58629;48.808;8.820;2023-07-13T01:51:44;2.87;;;1.27;;
70967;SDS011;58629;48.808;8.820;2023-07-13T01:54:09;1.70;;;1.00;;
70967;SDS011;58629;48.808;8.820;2023-07-13T01:56:34;2.03;;;1.10;;
70967;SDS011;58629;48.808;8.820;2023-07-13T01:59:00;2.13;;;0.90;;
70967;SDS011;58629;48.808;8.820;2023-07-13T02:01:25;1.77;;;1.10;;
70967;SDS011;58629;48.808;8.820;2023-07-13T02:03:50;1.10;;;0.90;;
70967;SDS011;58629;48.808;8.820;2023-07-13T02:06:16;1.58;;;0.85;;
70967;SDS011;58629;48.808;8.820;2023-07-13T02:08:41;0.87;;;0.80;;
70967;SDS011;58629;48.808;8.820;2023-07-13T02:11:07;2.17;;;1.20;;
70967;SDS011;58629;48.808;8.820;2023-07-13T02:13:33;2.43;;;1.10;;
70967;SDS011;58629;48.808;8.820;2023-07-13T02:15:58;1.20;;;0.80;;
70967;SDS011;58629;48.808;8.820;2023-07-13T02:18:24;1.08;;;0.90;;
70967;SDS011;58629;48.808;8.820;2023-07-13T02:20:49;1.00;;;0.90;;
70967;SDS011;58629;48.808;8.820;2023-07-13T02:23:14;0.93;;;0.80;;
70967;SDS011;58629;48.808;8.820;2023-07-13T02:25:40;0.87;;;0.70;;
70967;SDS011;58629;48.808;8.820;2023-07-13T02:28:06;0.75;;;0.70;;
70967;SDS011;58629;48.808;8.820;2023-07-13T02:30:31;1.00;;;0.80;;
70967;SDS011;58629;48.808;8.820;2023-07-13T02:32:57;1.50;;;0.70;;
70967;SDS011;58629;48.808;8.820;2023-07-13T02:35:22;1.33;;;0.77;;
70967;SDS011;58629;48.808;8.820;2023-07-13T02:37:48;1.38;;;0.80;;
70967;SDS011;58629;48.808;8.820;2023-07-13T02:40:14;0.82;;;0.80;;
70967;SDS011;58629;48.808;8.820;2023-07-13T02:42:39;0.80;;;0.70;;
70967;SDS011;58629;48.808;8.820;2023-07-13T02:45:06;0.90;;;0.80;;
70967;SDS011;58629;48.808;8.820;2023-07-13T02:47:32;1.25;;;0.60;;
70967;SDS011;58629;48.808;8.820;2023-07-13T02:49:58;0.50;;;0.50;;
70967;SDS011;58629;48.808;8.820;2023-07-13T02:52:23;0.93;;;0.70;;
70967;SDS011;58629;48.808;8.820;2023-07-13T02:54:49;0.82;;;0.82;;
70967;SDS011;58629;48.808;8.820;2023-07-13T02:57:14;0.97;;;0.70;;
70967;SDS011;58629;48.808;8.820;2023-07-13T02:59:40;0.60;;;0.60;;
70967;SDS011;58629;48.808;8.820;2023-07-13T03:02:05;0.70;;;0.70;;
70967;SDS011;58629;48.808;8.820;2023-07-13T03:04:30;0.77;;;0.77;;
70967;SDS011;58629;48.808;8.820;2023-07-13T03:06:56;0.80;;;0.80;;
70967;SDS011;58629;48.808;8.820;2023-07-13T03:09:23;0.45;;;0.45;;
70967;SDS011;58629;48.808;8.820;2023-07-13T03:11:48;1.02;;;0.70;;
70967;SDS011;58629;48.808;8.820;2023-07-13T03:14:14;0.70;;;0.60;;
70967;SDS011;58629;48.808;8.820;2023-07-13T03:16:39;0.60;;;0.60;;
70967;SDS011;58629;48.808;8.820;2023-07-13T03:19:05;0.70;;;0.70;;
70967;SDS011;58629;48.808;8.820;2023-07-13T03:21:30;0.60;;;0.60;;
70967;SDS011;58629;48.808;8.820;2023-07-13T03:23:56;0.60;;;0.55;;
70967;SDS011;58629;48.808;8.820;2023-07-13T03:26:22;0.97;;;0.73;;
70967;SDS011;58629;48.808;8.820;2023-07-13T03:28:47;0.70;;;0.60;;
70967;SDS011;58629;48.808;8.820;2023-07-13T03:31:14;0.80;;;0.68;;
70967;SDS011;58629;48.808;8.820;2023-07-13T03:33:42;0.80;;;0.60;;
70967;SDS011;58629;48.808;8.820;2023-07-13T03:36:11;0.93;;;0.70;;
70967;SDS011;58629;48.808;8.820;2023-07-13T03:38:48;0.75;;;0.65;;
70967;SDS011;58629;48.808;8.820;2023-07-13T03:41:15;1.65;;;0.90;;
70967;SDS011;58629;48.808;8.820;2023-07-13T03:43:41;0.70;;;0.63;;
70967;SDS011;58629;48.808;8.820;2023-07-13T03:46:07;1.13;;;0.67;;
70967;SDS011;58629;48.808;8.820;2023-07-13T03:48:32;0.70;;;0.60;;
70967;SDS011;58629;48.808;8.820;2023-07-13T03:50:57;1.03;;;0.60;;
70967;SDS011;58629;48.808;8.820;2023-07-13T03:53:22;0.70;;;0.70;;
70967;SDS011;58629;48.808;8.820;2023-07-13T03:55:48;1.17;;;0.50;;
70967;SDS011;58629;48.808;8.820;2023-07-13T03:58:23;1.07;;;0.70;;
70967;SDS011;58629;48.808;8.820;2023-07-13T04:01:00;1.10;;;0.75;;
70967;SDS011;58629;48.808;8.820;2023-07-13T04:03:26;0.87;;;0.80;;
70967;SDS011;58629;48.808;8.820;2023-07-13T04:05:53;0.60;;;0.60;;
70967;SDS011;58629;48.808;8.820;2023-07-13T04:08:19;0.80;;;0.70;;
70967;SDS011;58629;48.808;8.820;2023-07-13T04:10:44;3.00;;;1.00;;
70967;SDS011;58629;48.808;8.820;2023-07-13T04:13:09;1.65;;;0.90;;
70967;SDS011;58629;48.808;8.820;2023-07-13T04:15:35;0.80;;;0.70;;
70967;SDS011;58629;48.808;8.820;2023-07-13T04:18:00;0.70;;;0.70;;
70967;SDS011;58629;48.808;8.820;2023-07-13T04:20:26;1.00;;;0.77;;
70967;SDS011;58629;48.808;8.820;2023-07-13T04:22:51;2.20;;;0.90;;
70967;SDS011;58629;48.808;8.820;2023-07-13T04:25:18;2.78;;;0.90;;
70967;SDS011;58629;48.808;8.820;2023-07-13T04:27:44;1.00;;;0.85;;
70967;SDS011;58629;48.808;8.820;2023-07-13T04:30:09;1.23;;;0.80;;
70967;SDS011;58629;48.808;8.820;2023-07-13T04:32:35;1.40;;;0.80;;
70967;SDS011;58629;48.808;8.820;2023-07-13T04:35:00;1.60;;;0.80;;
70967;SDS011;58629;48.808;8.820;2023-07-13T04:37:26;1.30;;;1.00;;
70967;SDS011;58629;48.808;8.820;2023-07-13T04:39:51;1.88;;;1.00;;
70967;SDS011;58629;48.808;8.820;2023-07-13T04:42:17;3.55;;;1.10;;
70967;SDS011;58629;48.808;8.820;2023-07-13T04:44:47;2.50;;;1.17;;
70967;SDS011;58629;48.808;8.820;2023-07-13T04:47:16;1.35;;;0.95;;
70967;SDS011;58629;48.808;8.820;2023-07-13T04:49:42;1.70;;;1.20;;
70967;SDS011;58629;48.808;8.820;2023-07-13T04:52:08;1.67;;;1.02;;
70967;SDS011;58629;48.808;8.820;2023-07-13T04:54:34;1.07;;;0.97;;
70967;SDS011;58629;48.808;8.820;2023-07-13T04:57:00;1.33;;;1.00;;
70967;SDS011;58629;48.808;8.820;2023-07-13T04:59:26;1.03;;;0.90;;
70967;SDS011;58629;48.808;8.820;2023-07-13T05:01:52;1.88;;;0.98;;
70967;SDS011;58629;48.808;8.820;2023-07-13T05:04:18;0.85;;;0.85;;
70967;SDS011;58629;48.808;8.820;2023-07-13T05:06:43;1.53;;;1.10;;
70967;SDS011;58629;48.808;8.820;2023-07-13T05:09:08;1.40;;;0.80;;
70967;SDS011;58629;48.808;8.820;2023-07-13T05:11:34;0.97;;;0.80;;
70967;SDS011;58629;48.808;8.820;2023-07-13T05:13:59;1.83;;;1.10;;
70967;SDS011;58629;48.808;8.820;2023-07-13T05:16:26;1.70;;;1.05;;
70967;SDS011;58629;48.808;8.820;2023-07-13T05:18:52;1.00;;;0.90;;
70967;SDS011;58629;48.808;8.820;2023-07-13T05:21:17;1.43;;;1.10;;
70967;SDS011;58629;48.808;8.820;2023-07-13T05:23:42;2.10;;;1.40;;
70967;SDS011;58629;48.808;8.820;2023-07-13T05:26:08;1.37;;;1.17;;
70967;SDS011;58629;48.808;8.820;2023-07-13T05:28:33;1.30;;;1.20;;
70967;SDS011;58629;48.808;8.820;2023-07-13T05:30:58;1.47;;;1.30;;
70967;SDS011;58629;48.808;8.820;2023-07-13T05:33:24;1.05;;;0.95;;
70967;SDS011;58629;48.808;8.820;2023-07-13T05:35:50;1.02;;;0.93;;
70967;SDS011;58629;48.808;8.820;2023-07-13T05:38:15;1.60;;;1.10;;
70967;SDS011;58629;48.808;8.820;2023-07-13T05:40:44;1.40;;;1.20;;
70967;SDS011;58629;48.808;8.820;2023-07-13T05:43:11;2.05;;;1.20;;
70967;SDS011;58629;48.808;8.820;2023-07-13T05:45:37;2.73;;;1.20;;
70967;SDS011;58629;48.808;8.820;2023-07-13T05:48:02;3.05;;;1.30;;
70967;SDS011;58629;48.808;8.820;2023-07-13T05:50:28;1.53;;;1.40;;
70967;SDS011;58629;48.808;8.820;2023-07-13T05:52:53;1.20;;;1.10;;
70967;SDS011;58629;48.808;8.820;2023-07-13T05:55:19;1.50;;;1.20;;
70967;SDS011;58629;48.808;8.820;2023-07-13T05:57:45;2.17;;;1.45;;
70967;SDS011;58629;48.808;8.820;2023-07-13T06:00:10;1.90;;;1.10;;
70967;SDS011;58629;48.808;8.820;2023-07-13T06:02:36;1.23;;;1.10;;
70967;SDS011;58629;48.808;8.820;2023-07-13T06:05:01;1.40;;;1.00;;
70967;SDS011;58629;48.808;8.820;2023-07-13T06:07:27;1.10;;;1.00;;
70967;SDS011;58629;48.808;8.820;2023-07-13T06:09:52;1.77;;;1.27;;
70967;SDS011;58629;48.808;8.820;2023-07-13T06:12:18;1.30;;;1.00;;
70967;SDS011;58629;48.808;8.820;2023-07-13T06:14:43;1.40;;;1.20;;
70967;SDS011;58629;48.808;8.820;2023-07-13T06:17:08;1.20;;;0.87;;
70967;SDS011;58629;48.808;8.820;2023-07-13T06:19:34;1.30;;;1.00;;
70967;SDS011;58629;48.808;8.820;2023-07-13T06:21:59;1.20;;;1.10;;
70967;SDS011;58629;48.808;8.820;2023-07-13T06:24:25;1.38;;;1.10;;
70967;SDS011;58629;48.808;8.820;2023-07-13T06:26:50;1.23;;;1.10;;
70967;SDS011;58629;48.808;8.820;2023-07-13T06:29:16;1.63;;;1.10;;
70967;SDS011;58629;48.808;8.820;2023-07-13T06:31:41;1.37;;;1.20;;
70967;SDS011;58629;48.808;8.820;2023-07-13T06:34:06;1.83;;;1.30;;
70967;SDS011;58629;48.808;8.820;2023-07-13T06:36:32;2.25;;;1.30;;
70967;SDS011;58629;48.808;8.820;2023-07-13T06:38:57;2.00;;;1.10;;
70967;SDS011;58629;48.808;8.820;2023-07-13T06:41:22;2.07;;;1.30;;
70967;SDS011;58629;48.808;8.820;2023-07-13T06:43:49;2.75;;;1.25;;
70967;SDS011;58629;48.808;8.820;2023-07-13T06:46:15;1.17;;;0.93;;
70967;SDS011;58629;48.808;8.820;2023-07-13T06:48:40;1.27;;;1.10;;
70967;SDS011;58629;48.808;8.820;2023-07-13T06:51:05;1.53;;;1.30;;
70967;SDS011;58629;48.808;8.820;2023-07-13T06:53:31;1.03;;;0.90;;
70967;SDS011;58629;48.808;8.820;2023-07-13T06:55:56;1.87;;;1.00;;
70967;SDS011;58629;48.808;8.820;2023-07-13T06:58:22;3.17;;;1.40;;
70967;SDS011;58629;48.808;8.820;2023-07-13T07:00:49;2.00;;;1.15;;
70967;SDS011;58629;48.808;8.820;2023-07-13T07:03:16;1.95;;;1.50;;
70967;SDS011;58629;48.808;8.820;2023-07-13T07:05:41;2.50;;;1.40;;
70967;SDS011;58629;48.808;8.820;2023-07-13T07:08:06;1.50;;;1.27;;
70967;SDS011;58629;48.808;8.820;2023-07-13T07:10:32;1.30;;;1.20;;
70967;SDS011;58629;48.808;8.820;2023-07-13T07:12:58;1.42;;;1.00;;
70967;SDS011;58629;48.808;8.820;2023-07-13T07:15:25;1.50;;;1.40;;
70967;SDS011;58629;48.808;8.820;2023-07-13T07:17:50;1.20;;;1.10;;
70967;SDS011;58629;48.808;8.820;2023-07-13T07:20:16;2.40;;;1.50;;
70967;SDS011;58629;48.808;8.820;2023-07-13T07:22:41;1.97;;;1.30;;
70967;SDS011;58629;48.808;8.820;2023-07-13T07:25:07;2.80;;;1.40;;
70967;SDS011;58629;48.808;8.820;2023-07-13T07:27:32;1.70;;;1.30;;
70967;SDS011;58629;48.808;8.820;2023-07-13T07:29:58;1.10;;;1.00;;
70967;SDS011;58629;48.808;8.820;2023-07-13T07:32:24;2.50;;;1.30;;
70967;SDS011;58629;48.808;8.820;2023-07-13T07:34:49;3.72;;;1.10;;
70967;SDS011;58629;48.808;8.820;2023-07-13T07:37:14;3.40;;;1.50;;
70967;SDS011;58629;48.808;8.820;2023-07-13T07:39:40;2.80;;;1.30;;
70967;SDS011;58629;48.808;8.820;2023-07-13T07:42:06;2.27;;;1.40;;
70967;SDS011;58629;48.808;8.820;2023-07-13T07:44:32;1.73;;;1.20;;
70967;SDS011;58629;48.808;8.820;2023-07-13T07:46:58;2.25;;;1.30;;
70967;SDS011;58629;48.808;8.820;2023-07-13T07:49:23;2.23;;;1.20;;
70967;SDS011;58629;48.808;8.820;2023-07-13T07:51:49;2.88;;;1.30;;
70967;SDS011;58629;48.808;8.820;2023-07-13T07:54:14;2.93;;;1.30;;
70967;SDS011;58629;48.808;8.820;2023-07-13T07:56:40;1.70;;;1.20;;
70967;SDS011;58629;48.808;8.820;2023-07-13T07:59:05;2.47;;;1.15;;
70967;SDS011;58629;48.808;8.820;2023-07-13T08:01:31;1.77;;;1.10;;
70967;SDS011;58629;48.808;8.820;2023-07-13T08:03:56;2.00;;;1.30;;
70967;SDS011;58629;48.808;8.820;2023-07-13T08:06:21;2.30;;;1.00;;
70967;SDS011;58629;48.808;8.820;2023-07-13T08:08:48;2.63;;;1.10;;
70967;SDS011;58629;48.808;8.820;2023-07-13T08:11:13;2.70;;;1.10;;
70967;SDS011;58629;48.808;8.820;2023-07-13T08:13:38;3.33;;;1.00;;
70967;SDS011;58629;48.808;8.820;2023-07-13T08:16:04;1.50;;;0.90;;
70967;SDS011;58629;48.808;8.820;2023-07-13T08:18:30;1.70;;;1.00;;
70967;SDS011;58629;48.808;8.820;2023-07-13T08:20:56;2.97;;;1.00;;
70967;SDS011;58629;48.808;8.820;2023-07-13T08:23:21;3.37;;;1.20;;
70967;SDS011;58629;48.808;8.820;2023-07-13T08:25:51;3.45;;;1.00;;
70967;SDS011;58629;48.808;8.820;2023-07-13T08:28:17;2.17;;;1.00;;
70967;SDS011;58629;48.808;8.820;2023-07-13T08:30:43;2.53;;;1.17;;
70967;SDS011;58629;48.808;8.820;2023-07-13T08:33:08;3.17;;;0.87;;
70967;SDS011;58629;48.808;8.820;2023-07-13T08:35:34;2.40;;;1.00;;
70967;SDS011;58629;48.808;8.820;2023-07-13T08:37:59;1.13;;;0.95;;
70967;SDS011;58629;48.808;8.820;2023-07-13T08:40:25;1.77;;;1.00;;
70967;SDS011;58629;48.808;8.820;2023-07-13T08:42:53;2.40;;;1.05;;
70967;SDS011;58629;48.808;8.820;2023-07-13T08:47:55;5.35;;;1.05;;
70967;SDS011;58629;48.808;8.820;2023-07-13T08:50:33;2.13;;;1.00;;
70967;SDS011;58629;48.808;8.820;2023-07-13T08:53:05;2.05;;;1.00;;
70967;SDS011;58629;48.808;8.820;2023-07-13T08:55:33;2.72;;;1.20;;
70967;SDS011;58629;48.808;8.820;2023-07-13T08:58:12;4.82;;;1.10;;
70967;SDS011;58629;48.808;8.820;2023-07-13T09:03:22;3.95;;;1.20;;
70967;SDS011;58629;48.808;8.820;2023-07-13T09:05:51;3.13;;;1.02;;
70967;SDS011;58629;48.808;8.820;2023-07-13T09:08:31;2.73;;;1.27;;
70967;SDS011;58629;48.808;8.820;2023-07-13T09:16:31;2.78;;;1.10;;
70967;SDS011;58629;48.808;8.820;2023-07-13T09:19:00;2.03;;;1.20;;
70967;SDS011;58629;48.808;8.820;2023-07-13T09:21:30;2.97;;;1.30;;
70967;SDS011;58629;48.808;8.820;2023-07-13T09:27:01;2.20;;;1.30;;
70967;SDS011;58629;48.808;8.820;2023-07-13T09:29:37;2.25;;;1.30;;
70967;SDS011;58629;48.808;8.820;2023-07-13T09:32:10;3.22;;;1.48;;
70967;SDS011;58629;48.808;8.820;2023-07-13T09:34:39;2.95;;;1.35;;
70967;SDS011;58629;48.808;8.820;2023-07-13T09:37:05;2.20;;;1.40;;
70967;SDS011;58629;48.808;8.820;2023-07-13T09:39:35;6.10;;;1.30;;
70967;SDS011;58629;48.808;8.820;2023-07-13T09:44:50;2.25;;;1.30;;
70967;SDS011;58629;48.808;8.820;2023-07-13T09:47:17;2.60;;;1.30;;
70967;SDS011;58629;48.808;8.820;2023-07-13T09:49:45;2.55;;;1.48;;
70967;SDS011;58629;48.808;8.820;2023-07-13T09:52:11;2.10;;;1.50;;
70967;SDS011;58629;48.808;8.820;2023-07-13T09:54:39;1.92;;;1.30;;
70967;SDS011;58629;48.808;8.820;2023-07-13T09:57:12;2.63;;;1.40;;
70967;SDS011;58629;48.808;8.820;2023-07-13T09:59:40;2.75;;;1.40;;
70967;SDS011;58629;48.808;8.820;2023-07-13T10:05:03;1.75;;;1.20;;
70967;SDS011;58629;48.808;8.820;2023-07-13T10:07:32;2.23;;;1.30;;
70967;SDS011;58629;48.808;8.820;2023-07-13T10:10:03;2.20;;;1.20;;
70967;SDS011;58629;48.808;8.820;2023-07-13T10:12:29;3.88;;;1.20;;
70967;SDS011;58629;48.808;8.820;2023-07-13T10:15:00;3.27;;;1.10;;
70967;SDS011;58629;48.808;8.820;2023-07-13T10:17:29;2.55;;;1.40;;
70967;SDS011;58629;48.808;8.820;2023-07-13T10:20:03;2.08;;;1.30;;
70967;SDS011;58629;48.808;8.820;2023-07-13T10:25:15;3.35;;;1.60;;
70967;SDS011;58629;48.808;8.820;2023-07-13T10:27:43;2.93;;;1.43;;
70967;SDS011;58629;48.808;8.820;2023-07-13T10:32:42;3.15;;;1.50;;
70967;SDS011;58629;48.808;8.820;2023-07-13T10:35:12;2.33;;;1.40;;
70967;SDS011;58629;48.808;8.820;2023-07-13T10:40:17;3.80;;;1.30;;
70967;SDS011;58629;48.808;8.820;2023-07-13T10:42:49;2.88;;;1.40;;
70967;SDS011;58629;48.808;8.820;2023-07-13T10:45:18;2.03;;;1.40;;
70967;SDS011;58629;48.808;8.820;2023-07-13T10:47:47;1.50;;;1.27;;
70967;SDS011;58629;48.808;8.820;2023-07-13T10:50:15;2.05;;;1.40;;
70967;SDS011;58629;48.808;8.820;2023-07-13T10:52:48;4.13;;;1.20;;
70967;SDS011;58629;48.808;8.820;2023-07-13T10:58:23;1.98;;;1.25;;
70967;SDS011;58629;48.808;8.820;2023-07-13T11:03:31;3.22;;;1.20;;
70967;SDS011;58629;48.808;8.820;2023-07-13T11:06:42;1.17;;;1.03;;
70967;SDS011;58629;48.808;8.820;2023-07-13T11:08:55;1.30;;;1.20;;
70967;SDS011;58629;48.808;8.820;2023-07-13T11:11:42;2.40;;;1.40;;
70967;SDS011;58629;48.808;8.820;2023-07-13T11:14:27;2.10;;;1.30;;
70967;SDS011;58629;48.808;8.820;2023-07-13T11:16:53;2.20;;;1.50;;
70967;SDS011;58629;48.808;8.820;2023-07-13T11:30:07;2.28;;;1.55;;
70967;SDS011;58629;48.808;8.820;2023-07-13T11:32:35;3.95;;;1.40;;
70967;SDS011;58629;48.808;8.820;2023-07-13T11:35:01;2.00;;;1.47;;
70967;SDS011;58629;48.808;8.820;2023-07-13T11:37:26;1.70;;;1.50;;
70967;SDS011;58629;48.808;8.820;2023-07-13T11:39:54;3.47;;;1.50;;
70967;SDS011;58629;48.808;8.820;2023-07-13T11:42:20;2.43;;;1.50;;
70967;SDS011;58629;48.808;8.820;2023-07-13T11:44:47;3.63;;;1.45;;
70967;SDS011;58629;48.808;8.820;2023-07-13T11:47:17;3.20;;;1.40;;
70967;SDS011;58629;48.808;8.820;2023-07-13T11:49:47;3.70;;;1.55;;
70967;SDS011;58629;48.808;8.820;2023-07-13T11:52:19;2.67;;;1.50;;
70967;SDS011;58629;48.808;8.820;2023-07-13T11:59:59;5.25;;;1.80;;
70967;SDS011;58629;48.808;8.820;2023-07-13T12:02:31;2.63;;;1.60;;
70967;SDS011;58629;48.808;8.820;2023-07-13T12:04:58;2.30;;;1.60;;
70967;SDS011;58629;48.808;8.820;2023-07-13T12:07:28;2.72;;;1.60;;
70967;SDS011;58629;48.808;8.820;2023-07-13T12:10:03;3.25;;;1.52;;
70967;SDS011;58629;48.808;8.820;2023-07-13T12:12:52;2.38;;;1.40;;
70967;SDS011;58629;48.808;8.820;2023-07-13T12:15:19;5.47;;;1.40;;
70967;SDS011;58629;48.808;8.820;2023-07-13T12:17:47;2.17;;;1.40;;
70967;SDS011;58629;48.808;8.820;2023-07-13T12:20:20;2.90;;;1.60;;
70967;SDS011;58629;48.808;8.820;2023-07-13T12:22:50;2.92;;;1.50;;
70967;SDS011;58629;48.808;8.820;2023-07-13T12:25:16;2.80;;;1.55;;
70967;SDS011;58629;48.808;8.820;2023-07-13T12:27:42;2.08;;;1.55;;
70967;SDS011;58629;48.808;8.820;2023-07-13T12:30:23;3.57;;;1.53;;
70967;SDS011;58629;48.808;8.820;2023-07-13T12:32:55;2.17;;;1.50;;
70967;SDS011;58629;48.808;8.820;2023-07-13T12:35:21;3.33;;;1.50;;
70967;SDS011;58629;48.808;8.820;2023-07-13T12:37:47;1.80;;;1.30;;
70967;SDS011;58629;48.808;8.820;2023-07-13T12:40:13;3.90;;;1.70;;
70967;SDS011;58629;48.808;8.820;2023-07-13T12:42:41;1.63;;;1.48;;
70967;SDS011;58629;48.808;8.820;2023-07-13T12:45:40;3.63;;;1.40;;
70967;SDS011;58629;48.808;8.820;2023-07-13T12:48:06;2.83;;;1.50;;
70967;SDS011;58629;48.808;8.820;2023-07-13T12:50:40;3.50;;;1.48;;
70967;SDS011;58629;48.808;8.820;2023-07-13T12:53:12;3.00;;;1.52;;
70967;SDS011;58629;48.808;8.820;2023-07-13T12:55:43;2.50;;;1.55;;
70967;SDS011;58629;48.808;8.820;2023-07-13T12:58:24;3.03;;;1.40;;
70967;SDS011;58629;48.808;8.820;2023-07-13T13:00:55;2.03;;;1.40;;
70967;SDS011;58629;48.808;8.820;2023-07-13T13:03:29;2.03;;;1.40;;
70967;SDS011;58629;48.808;8.820;2023-07-13T13:06:02;1.77;;;1.40;;
70967;SDS011;58629;48.808;8.820;2023-07-13T13:08:33;2.78;;;1.58;;
70967;SDS011;58629;48.808;8.820;2023-07-13T13:11:00;4.43;;;1.60;;
70967;SDS011;58629;48.808;8.820;2023-07-13T13:13:26;2.75;;;1.58;;
70967;SDS011;58629;48.808;8.820;2023-07-13T13:15:51;3.80;;;1.40;;
70967;SDS011;58629;48.808;8.820;2023-07-13T13:18:21;1.50;;;1.30;;
70967;SDS011;58629;48.808;8.820;2023-07-13T13:20:49;2.33;;;1.40;;
70967;SDS011;58629;48.808;8.820;2023-07-13T13:23:16;3.03;;;1.60;;
70967;SDS011;58629;48.808;8.820;2023-07-13T13:25:43;3.78;;;1.48;;
70967;SDS011;58629;48.808;8.820;2023-07-13T13:28:18;1.70;;;1.40;;
70967;SDS011;58629;48.808;8.820;2023-07-13T13:30:45;3.08;;;1.55;;
70967;SDS011;58629;48.808;8.820;2023-07-13T13:33:13;1.50;;;1.40;;
70967;SDS011;58629;48.808;8.820;2023-07-13T13:35:41;1.43;;;1.27;;
70967;SDS011;58629;48.808;8.820;2023-07-13T13:38:09;2.08;;;1.30;;
70967;SDS011;58629;48.808;8.820;2023-07-13T13:40:37;2.28;;;1.40;;
70967;SDS011;58629;48.808;8.820;2023-07-13T13:43:02;1.77;;;1.50;;
70967;SDS011;58629;48.808;8.820;2023-07-13T13:45:38;2.97;;;1.70;;
70967;SDS011;58629;48.808;8.820;2023-07-13T13:48:04;1.70;;;1.52;;
70967;SDS011;58629;48.808;8.820;2023-07-13T13:50:30;2.30;;;1.33;;
70967;SDS011;58629;48.808;8.820;2023-07-13T13:52:55;3.00;;;1.50;;
70967;SDS011;58629;48.808;8.820;2023-07-13T13:55:21;2.23;;;1.47;;
70967;SDS011;58629;48.808;8.820;2023-07-13T13:57:47;2.20;;;1.40;;
70967;SDS011;58629;48.808;8.820;2023-07-13T14:00:13;2.88;;;1.70;;
70967;SDS011;58629;48.808;8.820;2023-07-13T14:02:42;2.45;;;1.58;;
70967;SDS011;58629;48.808;8.820;2023-07-13T14:05:12;1.85;;;1.60;;
70967;SDS011;58629;48.808;8.820;2023-07-13T14:07:39;2.37;;;1.50;;
70967;SDS011;58629;48.808;8.820;2023-07-13T14:10:10;2.30;;;1.52;;
70967;SDS011;58629;48.808;8.820;2023-07-13T14:12:37;1.80;;;1.50;;
70967;SDS011;58629;48.808;8.820;2023-07-13T14:15:03;4.28;;;1.55;;
70967;SDS011;58629;48.808;8.820;2023-07-13T14:17:29;2.95;;;1.77;;
70967;SDS011;58629;48.808;8.820;2023-07-13T14:19:55;3.70;;;1.70;;
70967;SDS011;58629;48.808;8.820;2023-07-13T14:22:24;2.90;;;1.50;;
70967;SDS011;58629;48.808;8.820;2023-07-13T14:24:53;2.35;;;1.58;;
70967;SDS011;58629;48.808;8.820;2023-07-13T14:27:19;2.20;;;1.60;;
70967;SDS011;58629;48.808;8.820;2023-07-13T14:29:45;2.17;;;1.60;;
70967;SDS011;58629;48.808;8.820;2023-07-13T14:32:10;3.87;;;1.50;;
70967;SDS011;58629;48.808;8.820;2023-07-13T14:34:37;1.80;;;1.40;;
70967;SDS011;58629;48.808;8.820;2023-07-13T14:37:02;2.15;;;1.33;;
70967;SDS011;58629;48.808;8.820;2023-07-13T14:39:29;3.42;;;1.60;;
70967;SDS011;58629;48.808;8.820;2023-07-13T14:41:55;2.63;;;1.47;;
70967;SDS011;58629;48.808;8.820;2023-07-13T14:44:25;3.15;;;1.50;;
70967;SDS011;58629;48.808;8.820;2023-07-13T14:46:54;1.73;;;1.63;;
70967;SDS011;58629;48.808;8.820;2023-07-13T14:51:54;2.58;;;1.70;;
70967;SDS011;58629;48.808;8.820;2023-07-13T14:54:22;3.20;;;1.63;;
70967;SDS011;58629;48.808;8.820;2023-07-13T14:56:48;5.00;;;1.50;;
70967;SDS011;58629;48.808;8.820;2023-07-13T14:59:13;1.60;;;1.40;;
70967;SDS011;58629;48.808;8.820;2023-07-13T15:01:39;2.30;;;1.60;;
70967;SDS011;58629;48.808;8.820;2023-07-13T15:04:05;1.85;;;1.50;;
70967;SDS011;58629;48.808;8.820;2023-07-13T15:06:31;5.80;;;1.70;;
70967;SDS011;58629;48.808;8.820;2023-07-13T15:08:56;3.17;;;1.50;;
70967;SDS011;58629;48.808;8.820;2023-07-13T15:11:22;3.80;;;1.50;;
70967;SDS011;58629;48.808;8.820;2023-07-13T15:13:47;2.53;;;1.42;;
70967;SDS011;58629;48.808;8.820;2023-07-13T15:16:17;2.53;;;1.40;;
70967;SDS011;58629;48.808;8.820;2023-07-13T15:18:46;2.85;;;1.40;;
70967;SDS011;58629;48.808;8.820;2023-07-13T15:21:13;2.70;;;1.37;;
70967;SDS011;58629;48.808;8.820;2023-07-13T15:23:44;2.65;;;1.40;;
70967;SDS011;58629;48.808;8.820;2023-07-13T15:26:16;1.93;;;1.80;;
70967;SDS011;58629;48.808;8.820;2023-07-13T15:28:42;2.00;;;1.40;;
70967;SDS011;58629;48.808;8.820;2023-07-13T15:31:16;2.20;;;1.30;;
70967;SDS011;58629;48.808;8.820;2023-07-13T15:33:44;1.45;;;1.30;;
70967;SDS011;58629;48.808;8.820;2023-07-13T15:36:10;1.83;;;1.20;;
70967;SDS011;58629;48.808;8.820;2023-07-13T15:38:35;3.23;;;1.30;;
70967;SDS011;58629;48.808;8.820;2023-07-13T15:41:08;2.65;;;1.40;;
70967;SDS011;58629;48.808;8.820;2023-07-13T15:43:40;2.75;;;1.70;;